Time;durP1;ratioP1;P1;durP2;ratioP2;P2;SDS_P1;SDS_P2;PMS_P1;PMS_P2;Temp;Humidity;BMP_temperature;BMP_pressure;BME280_temperature;BME280_humidity;BME280_pressure;Samples;Min_cycle;Max_cycle;Signal;HPM_P1;HPM_P2
2022/03/31 00:00:10;;;;;;;;;;;;;;;9.68;56.35;90845.34;2055026;69;20506;-73
2022/03/31 00:02:37;;;;;;;;;;;;;;;9.78;54.13;90833.03;2054982;70;20070;-73
2022/03/31 00:05:03;;;;;;;;;;;;;;;9.73;55.04;90831.44;2068029;69;20081;-72
2022/03/31 00:07:28;;;;;;;;;;;;;;;9.61;55.84;90828.94;2068141;69;20046;-72
2022/03/31 00:09:54;;;;;;;;;;;;;;;9.69;54.99;90823.59;2054361;69;20054;-72
2022/03/31 00:12:19;;;;;;;;;;;;;;;9.60;55.80;90828.22;2052060;69;20229;-72
2022/03/31 00:14:46;;;;;;;;;;;;;;;9.57;55.49;90829.50;2048376;70;20051;-72
2022/03/31 00:17:11;;;;;;;;;;;;;;;9.66;55.16;90817.16;2045999;70;20047;-72
2022/03/31 00:19:37;;;;;;;;;;;;;;;9.69;55.24;90817.97;2052409;70;20093;-72
2022/03/31 00:22:02;;;;;;;;;;;;;;;9.57;56.49;90814.75;2049365;70;20050;-72
2022/03/31 00:24:29;;;;;;;;;;;;;;;9.53;57.08;90809.72;2052451;70;20441;-73
2022/03/31 00:26:54;;;;;;;;;;;;;;;9.56;56.29;90819.66;2052420;70;20062;-72
2022/03/31 00:29:19;;;;;;;;;;;;;;;9.45;56.54;90811.53;2052367;70;20563;-72
2022/03/31 00:31:45;;;;;;;;;;;;;;;9.49;56.83;90814.50;2052594;70;20429;-72
2022/03/31 00:34:11;;;;;;;;;;;;;;;9.49;55.14;90798.34;2055648;69;20046;-72
2022/03/31 00:36:36;;;;;;;;;;;;;;;9.43;56.02;90796.03;2055647;69;20072;-72
2022/03/31 00:41:46;;;;;;;;;;;;;;;9.41;56.15;90787.56;2055769;70;20411;-73
2022/03/31 00:44:11;;;;;;;;;;;;;;;9.49;53.34;90789.22;2055701;70;20056;-73
2022/03/31 00:46:45;;;;;;;;;;;;;;;9.34;55.78;90780.28;2055629;70;20078;-73
2022/03/31 00:49:11;;;;;;;;;;;;;;;9.28;56.76;90777.28;2068850;69;20475;-73
2022/03/31 00:51:36;;;;;;;;;;;;;;;9.19;56.63;90769.22;2055731;70;20594;-73
2022/03/31 00:54:02;;;;;;;;;;;;;;;9.10;57.04;90774.53;2055707;70;20054;-73
2022/03/31 00:56:27;;;;;;;;;;;;;;;9.08;57.31;90777.28;2055794;70;20062;-73
2022/03/31 00:58:54;;;;;;;;;;;;;;;9.10;56.49;90768.94;2055645;69;20657;-73
2022/03/31 01:01:21;;;;;;;;;;;;;;;9.15;56.44;90764.19;2055596;70;20050;-74
2022/03/31 01:03:46;;;;;;;;;;;;;;;9.13;56.55;90762.03;2055549;70;20082;-73
2022/03/31 01:06:12;;;;;;;;;;;;;;;9.08;56.28;90766.06;2055778;70;20090;-73
2022/03/31 01:08:37;;;;;;;;;;;;;;;9.00;56.48;90767.84;2068653;69;20073;-73
2022/03/31 01:11:03;;;;;;;;;;;;;;;8.97;56.78;90760.72;2065849;69;20165;-73
2022/03/31 01:13:28;;;;;;;;;;;;;;;8.87;57.76;90766.69;2068633;69;20416;-73
2022/03/31 01:15:54;;;;;;;;;;;;;;;8.88;57.73;90756.91;2068498;69;20078;-73
2022/03/31 01:18:20;;;;;;;;;;;;;;;8.99;56.32;90752.41;2055572;70;20510;-73
2022/03/31 01:20:46;;;;;;;;;;;;;;;8.86;57.15;90748.44;2055485;70;20093;-74
2022/03/31 01:23:14;;;;;;;;;;;;;;;8.76;58.34;90745.28;2068692;69;20057;-73
2022/03/31 01:25:39;;;;;;;;;;;;;;;8.79;57.25;90736.25;2055657;70;20058;-73
2022/03/31 01:28:05;;;;;;;;;;;;;;;8.80;56.88;90734.91;2055724;70;20132;-73
2022/03/31 01:30:30;;;;;;;;;;;;;;;8.64;58.16;90732.22;2055510;70;20135;-73
2022/03/31 01:32:56;;;;;;;;;;;;;;;8.71;58.45;90727.56;2055420;70;20414;-73
2022/03/31 01:35:21;;;;;;;;;;;;;;;8.56;58.55;90736.81;2055450;70;20052;-73
2022/03/31 01:37:47;;;;;;;;;;;;;;;8.45;59.55;90726.63;2068595;69;20173;-73
2022/03/31 01:40:13;;;;;;;;;;;;;;;8.63;57.89;90730.81;2068401;69;20437;-73
2022/03/31 01:42:39;;;;;;;;;;;;;;;8.61;58.02;90713.91;2055291;70;20058;-73
2022/03/31 01:45:06;;;;;;;;;;;;;;;8.65;57.95;90713.31;2055179;70;20086;-73
2022/03/31 01:47:31;;;;;;;;;;;;;;;8.60;57.87;90720.88;2068290;69;20054;-72
2022/03/31 01:49:57;;;;;;;;;;;;;;;8.70;58.32;90709.28;2055416;69;20074;-72
2022/03/31 01:52:22;;;;;;;;;;;;;;;8.64;58.36;90707.00;2068218;69;20046;-72
2022/03/31 01:54:49;;;;;;;;;;;;;;;8.65;58.16;90704.91;2068136;69;20082;-72
2022/03/31 01:57:14;;;;;;;;;;;;;;;8.64;57.70;90707.00;2055452;70;20066;-72
2022/03/31 01:59:41;;;;;;;;;;;;;;;8.50;57.77;90712.09;2055206;69;20396;-73
2022/03/31 02:02:08;;;;;;;;;;;;;;;8.46;58.51;90708.41;2055141;70;20054;-72
2022/03/31 02:04:34;;;;;;;;;;;;;;;8.49;58.69;90699.44;2055520;69;20078;-72
2022/03/31 02:07:00;;;;;;;;;;;;;;;8.55;58.14;90691.25;2068234;69;20089;-73
2022/03/31 02:09:25;;;;;;;;;;;;;;;8.58;57.22;90692.03;2068024;69;20246;-72
2022/03/31 02:11:52;;;;;;;;;;;;;;;8.00;60.94;90688.50;2054625;70;20219;-72
2022/03/31 02:14:19;;;;;;;;;;;;;;;8.17;59.41;90698.94;2068176;69;20085;-72
2022/03/31 02:16:45;;;;;;;;;;;;;;;8.33;59.30;90693.22;2055255;70;20131;-72
2022/03/31 02:19:11;;;;;;;;;;;;;;;8.31;59.32;90690.34;2068474;69;20057;-72
2022/03/31 02:21:37;;;;;;;;;;;;;;;8.30;59.49;90689.63;2055322;69;20050;-72
2022/03/31 02:24:03;;;;;;;;;;;;;;;8.07;60.44;90681.75;2055483;70;20082;-72
2022/03/31 02:26:29;;;;;;;;;;;;;;;8.31;59.37;90684.75;2055299;70;20101;-72
2022/03/31 02:28:54;;;;;;;;;;;;;;;8.31;59.03;90679.84;2055216;70;20046;-72
2022/03/31 02:31:20;;;;;;;;;;;;;;;8.26;59.71;90680.34;2055195;70;20092;-73
2022/03/31 02:33:45;;;;;;;;;;;;;;;8.23;58.65;90676.75;2068348;69;20061;-73
2022/03/31 02:36:11;;;;;;;;;;;;;;;8.39;56.70;90677.38;2068268;69;20062;-72
2022/03/31 02:38:37;;;;;;;;;;;;;;;8.10;59.39;90674.84;2055360;69;20070;-73
2022/03/31 02:41:04;;;;;;;;;;;;;;;8.33;57.88;90663.09;2055127;70;20047;-73
2022/03/31 02:43:31;;;;;;;;;;;;;;;8.35;58.39;90674.38;2055291;70;20054;-73
2022/03/31 02:45:58;;;;;;;;;;;;;;;8.37;58.02;90671.69;2055213;70;20085;-71
2022/03/31 02:48:23;;;;;;;;;;;;;;;8.37;58.21;90662.56;2055072;70;20047;-72
2022/03/31 02:50:49;;;;;;;;;;;;;;;8.34;59.14;90661.75;2068419;69;20053;-74
2022/03/31 02:56:00;;;;;;;;;;;;;;;8.38;59.23;90663.97;2055286;70;20062;-72
2022/03/31 02:58:26;;;;;;;;;;;;;;;8.51;56.73;90665.84;2055256;69;20430;-73
2022/03/31 03:00:55;;;;;;;;;;;;;;;8.54;57.68;90661.06;2067699;69;20061;-75
2022/03/31 03:03:20;;;;;;;;;;;;;;;8.47;58.70;90651.69;2055200;70;20074;-73
2022/03/31 03:05:47;;;;;;;;;;;;;;;8.46;57.81;90649.53;2055196;70;20085;-72
2022/03/31 03:08:15;;;;;;;;;;;;;;;8.72;56.58;90653.28;2068166;69;20070;-74
2022/03/31 03:10:41;;;;;;;;;;;;;;;8.86;55.72;90644.63;2055167;70;20474;-73
2022/03/31 03:13:07;;;;;;;;;;;;;;;8.78;55.48;90638.72;2055337;69;20154;-73
2022/03/31 03:15:32;;;;;;;;;;;;;;;8.83;56.34;90632.59;2055076;69;20058;-74
2022/03/31 03:17:58;;;;;;;;;;;;;;;8.69;56.53;90634.22;2055105;70;20608;-73
2022/03/31 03:20:24;;;;;;;;;;;;;;;8.53;56.44;90640.72;2055252;69;20066;-74
2022/03/31 03:22:51;;;;;;;;;;;;;;;8.47;58.26;90646.09;2055254;70;20046;-75
2022/03/31 03:25:18;;;;;;;;;;;;;;;8.49;58.76;90637.75;2055166;70;20540;-74
2022/03/31 03:27:45;;;;;;;;;;;;;;;8.56;58.10;90636.59;2055426;70;20047;-74
2022/03/31 03:30:11;;;;;;;;;;;;;;;8.56;57.99;90625.38;2055352;70;20058;-74
2022/03/31 03:32:37;;;;;;;;;;;;;;;8.64;56.74;90633.34;2055604;70;20061;-74
2022/03/31 03:35:03;;;;;;;;;;;;;;;8.62;57.33;90636.81;2055464;69;20058;-75
2022/03/31 03:37:29;;;;;;;;;;;;;;;8.60;58.13;90642.34;2055637;70;20157;-75
2022/03/31 03:39:54;;;;;;;;;;;;;;;8.56;58.29;90638.69;2055615;70;20093;-75
2022/03/31 03:42:20;;;;;;;;;;;;;;;8.55;58.39;90640.06;2055458;69;20089;-75
2022/03/31 03:44:45;;;;;;;;;;;;;;;8.71;57.32;90643.44;2068407;69;20607;-75
2022/03/31 03:47:11;;;;;;;;;;;;;;;8.42;59.10;90638.19;2055612;70;20459;-76
2022/03/31 03:49:36;;;;;;;;;;;;;;;8.57;57.80;90632.44;2055612;69;20051;-75
2022/03/31 03:52:02;;;;;;;;;;;;;;;8.67;57.42;90640.47;2068690;69;20062;-75
2022/03/31 03:54:27;;;;;;;;;;;;;;;8.53;58.80;90640.72;2056005;69;20133;-74
2022/03/31 03:56:53;;;;;;;;;;;;;;;8.50;59.12;90636.38;2055966;69;20066;-74
2022/03/31 03:59:18;;;;;;;;;;;;;;;8.54;58.96;90641.41;2055897;69;20107;-75
2022/03/31 04:01:44;;;;;;;;;;;;;;;8.61;57.91;90629.78;2055963;70;20057;-74
2022/03/31 04:04:10;;;;;;;;;;;;;;;8.58;58.26;90635.97;2055847;70;20062;-75
2022/03/31 04:06:36;;;;;;;;;;;;;;;8.53;57.50;90625.97;2068888;69;20158;-73
2022/03/31 04:09:03;;;;;;;;;;;;;;;8.49;58.70;90623.75;2056102;70;20058;-74
2022/03/31 04:11:28;;;;;;;;;;;;;;;8.49;58.76;90623.03;2055884;69;20216;-75
2022/03/31 04:13:54;;;;;;;;;;;;;;;8.54;59.06;90628.13;2055867;70;20141;-75
2022/03/31 04:16:20;;;;;;;;;;;;;;;8.46;59.60;90627.81;2055919;69;20043;-75
2022/03/31 04:18:45;;;;;;;;;;;;;;;8.58;59.11;90625.47;2069018;69;20431;-75
2022/03/31 04:21:11;;;;;;;;;;;;;;;8.46;59.66;90616.63;2068939;69;20054;-75
2022/03/31 04:23:37;;;;;;;;;;;;;;;8.37;59.38;90624.03;2068935;69;20054;-75
2022/03/31 04:26:03;;;;;;;;;;;;;;;8.37;58.79;90626.81;2055904;70;20050;-75
2022/03/31 04:28:29;;;;;;;;;;;;;;;8.58;58.34;90624.75;2055916;70;20045;-75
2022/03/31 04:30:54;;;;;;;;;;;;;;;8.53;59.75;90629.50;2055799;69;20054;-75
2022/03/31 04:33:20;;;;;;;;;;;;;;;8.56;59.47;90619.75;2056129;70;20046;-75
2022/03/31 04:35:45;;;;;;;;;;;;;;;8.66;58.41;90616.63;2055929;70;20058;-75
2022/03/31 04:38:11;;;;;;;;;;;;;;;8.58;58.90;90613.53;2056012;70;20050;-74
2022/03/31 04:40:36;;;;;;;;;;;;;;;8.61;58.57;90621.38;2068895;69;20134;-75
2022/03/31 04:43:02;;;;;;;;;;;;;;;8.72;57.88;90613.28;2055961;69;20058;-75
2022/03/31 04:45:28;;;;;;;;;;;;;;;8.59;58.65;90614.97;2055730;70;20501;-75
2022/03/31 04:47:54;;;;;;;;;;;;;;;8.60;57.81;90619.91;2068910;69;20042;-75
2022/03/31 04:50:19;;;;;;;;;;;;;;;8.74;57.29;90611.25;2055803;70;20050;-75
2022/03/31 04:52:44;;;;;;;;;;;;;;;8.48;59.41;90611.09;2055986;70;20050;-75
2022/03/31 04:55:10;;;;;;;;;;;;;;;7.93;62.29;90614.00;2055804;70;20053;-75
2022/03/31 04:57:36;;;;;;;;;;;;;;;8.36;60.53;90616.25;2055824;70;20046;-74
2022/03/31 05:00:03;;;;;;;;;;;;;;;8.32;61.92;90614.00;2068704;69;20111;-74
2022/03/31 05:02:28;;;;;;;;;;;;;;;8.56;59.91;90621.84;2068828;69;20522;-75
2022/03/31 05:04:54;;;;;;;;;;;;;;;8.55;60.20;90612.00;2068686;69;20057;-74
2022/03/31 05:07:19;;;;;;;;;;;;;;;8.54;61.84;90621.78;2055914;70;20066;-74
2022/03/31 05:09:45;;;;;;;;;;;;;;;8.62;59.69;90616.47;2068870;69;20504;-74
2022/03/31 05:12:12;;;;;;;;;;;;;;;8.73;58.90;90615.44;2055923;70;20066;-75
2022/03/31 05:14:38;;;;;;;;;;;;;;;8.63;60.99;90615.81;2071366;69;20064;-75
2022/03/31 05:17:03;;;;;;;;;;;;;;;8.72;60.49;90618.91;2071660;69;20110;-74
2022/03/31 05:19:29;;;;;;;;;;;;;;;8.74;60.09;90621.75;2072257;69;20047;-75
2022/03/31 05:21:54;;;;;;;;;;;;;;;8.72;61.14;90616.81;2072168;69;20095;-75
2022/03/31 05:24:20;;;;;;;;;;;;;;;8.64;61.10;90622.13;2072123;69;20064;-73
2022/03/31 05:26:45;;;;;;;;;;;;;;;8.67;60.92;90623.66;2072126;69;20098;-74
2022/03/31 05:29:13;;;;;;;;;;;;;;;8.58;62.68;90625.47;2071960;69;20052;-74
2022/03/31 05:31:39;;;;;;;;;;;;;;;8.63;62.64;90635.44;2072008;69;20489;-73
2022/03/31 05:34:05;;;;;;;;;;;;;;;8.71;61.03;90623.78;2072160;69;20161;-74
2022/03/31 05:36:30;;;;;;;;;;;;;;;8.56;62.87;90624.66;2071990;69;20056;-75
2022/03/31 05:38:56;;;;;;;;;;;;;;;8.84;59.29;90617.22;2072142;69;20060;-74
2022/03/31 05:41:22;;;;;;;;;;;;;;;8.82;59.84;90619.22;2071980;69;20080;-74
2022/03/31 05:43:47;;;;;;;;;;;;;;;9.04;57.12;90627.69;2071900;69;20065;-75
2022/03/31 05:46:13;;;;;;;;;;;;;;;8.86;61.68;90617.28;2071471;69;20135;-74
2022/03/31 05:48:38;;;;;;;;;;;;;;;8.79;62.30;90624.06;2071483;69;20083;-74
2022/03/31 05:51:04;;;;;;;;;;;;;;;8.80;60.86;90614.28;2072003;69;20048;-75
2022/03/31 05:53:29;;;;;;;;;;;;;;;8.87;62.01;90627.13;2071951;69;20092;-74
2022/03/31 05:55:55;;;;;;;;;;;;;;;8.88;61.01;90614.53;2071972;69;20049;-75
2022/03/31 05:58:20;;;;;;;;;;;;;;;8.76;62.22;90616.94;2071943;69;20507;-74
2022/03/31 06:00:46;;;;;;;;;;;;;;;8.78;63.87;90614.19;2071794;69;20505;-74
2022/03/31 06:03:12;;;;;;;;;;;;;;;8.91;63.64;90616.06;2071997;69;20156;-75
2022/03/31 06:05:37;;;;;;;;;;;;;;;8.98;60.43;90616.97;2072181;69;20212;-75
2022/03/31 06:08:03;;;;;;;;;;;;;;;8.71;64.27;90617.47;2071951;69;20048;-75
2022/03/31 06:10:28;;;;;;;;;;;;;;;8.95;62.44;90615.47;2071910;69;20491;-75
2022/03/31 06:12:54;;;;;;;;;;;;;;;8.87;62.80;90615.91;2071406;69;20175;-75
2022/03/31 06:15:19;;;;;;;;;;;;;;;8.83;65.60;90612.25;2071697;69;20498;-75
2022/03/31 06:17:46;;;;;;;;;;;;;;;9.07;62.60;90615.13;2071972;69;20044;-75
2022/03/31 06:20:11;;;;;;;;;;;;;;;8.82;65.63;90610.81;2071915;69;20047;-75
2022/03/31 06:22:38;;;;;;;;;;;;;;;8.68;64.42;90611.06;2071923;69;20040;-75
2022/03/31 06:25:04;;;;;;;;;;;;;;;8.79;63.38;90604.41;2071394;69;20049;-75
2022/03/31 06:27:30;;;;;;;;;;;;;;;8.95;62.89;90601.44;2071892;69;20065;-74
2022/03/31 06:29:55;;;;;;;;;;;;;;;8.86;63.35;90608.88;2071867;69;20482;-74
2022/03/31 06:32:20;;;;;;;;;;;;;;;8.54;66.44;90608.50;2071894;69;20051;-74
2022/03/31 06:34:46;;;;;;;;;;;;;;;8.23;68.49;90609.47;2071980;69;20105;-75
2022/03/31 06:37:11;;;;;;;;;;;;;;;8.75;63.44;90607.09;2072010;69;20071;-75
2022/03/31 06:39:37;;;;;;;;;;;;;;;8.90;64.18;90599.88;2071925;69;20148;-75
2022/03/31 06:42:04;;;;;;;;;;;;;;;8.91;64.76;90604.81;2071861;69;20057;-74
2022/03/31 06:44:29;;;;;;;;;;;;;;;9.00;64.25;90605.81;2071691;69;20114;-74
2022/03/31 06:46:54;;;;;;;;;;;;;;;9.06;64.63;90602.47;2071917;69;20061;-73
2022/03/31 06:49:21;;;;;;;;;;;;;;;8.91;65.25;90601.31;2071341;69;20041;-75
2022/03/31 06:51:47;;;;;;;;;;;;;;;9.13;63.99;90599.22;2071781;69;20060;-75
2022/03/31 06:54:12;;;;;;;;;;;;;;;9.00;66.11;90600.19;2071265;69;20052;-74
2022/03/31 06:56:38;;;;;;;;;;;;;;;9.13;63.90;90602.03;2071388;69;20068;-74
2022/03/31 06:59:03;;;;;;;;;;;;;;;9.07;66.53;90589.88;2071851;69;20056;-74
2022/03/31 07:01:29;;;;;;;;;;;;;;;9.10;66.14;90597.00;2072049;69;20044;-74
2022/03/31 07:03:55;;;;;;;;;;;;;;;9.10;65.71;90585.78;2071864;69;20161;-74
2022/03/31 07:06:22;;;;;;;;;;;;;;;9.04;66.58;90591.19;2071724;69;20504;-74
2022/03/31 07:08:48;;;;;;;;;;;;;;;9.14;66.60;90589.44;2071821;69;20049;-74
2022/03/31 07:11:13;;;;;;;;;;;;;;;9.23;65.59;90596.03;2071806;69;20052;-73
2022/03/31 07:13:39;;;;;;;;;;;;;;;9.35;64.64;90599.22;2063869;69;20108;-75
2022/03/31 07:16:04;;;;;;;;;;;;;;;9.48;64.61;90591.16;2055440;69;20077;-74
2022/03/31 07:18:30;;;;;;;;;;;;;;;9.20;66.70;90591.00;2055688;70;20405;-74
2022/03/31 07:20:59;;;;;;;;;;;;;;;9.27;65.39;90587.72;2068508;69;20491;-74
2022/03/31 07:23:25;;;;;;;;;;;;;;;9.27;64.69;90587.72;2055445;70;20049;-74
2022/03/31 07:25:51;;;;;;;;;;;;;;;9.36;64.04;90585.91;2055391;70;20054;-74
2022/03/31 07:28:17;;;;;;;;;;;;;;;9.44;65.76;90580.53;2056390;69;20061;-73
2022/03/31 07:30:42;;;;;;;;;;;;;;;9.42;63.48;90572.75;2056538;70;20054;-73
2022/03/31 07:33:09;;;;;;;;;;;;;;;9.61;62.44;90576.84;2056796;70;20074;-74
2022/03/31 07:35:37;;;;;;;;;;;;;;;9.51;63.92;90576.53;2056563;69;20058;-74
2022/03/31 07:38:03;;;;;;;;;;;;;;;9.45;65.05;90579.16;2069558;69;20054;-74
2022/03/31 07:40:29;;;;;;;;;;;;;;;9.30;67.10;90580.06;2056599;70;20081;-74
2022/03/31 07:42:55;;;;;;;;;;;;;;;9.65;63.52;90570.63;2066731;69;20058;-74
2022/03/31 07:45:21;;;;;;;;;;;;;;;9.77;64.25;90575.91;2069462;69;20050;-74
2022/03/31 07:47:47;;;;;;;;;;;;;;;9.85;63.28;90570.50;2056538;70;20498;-74
2022/03/31 07:50:14;;;;;;;;;;;;;;;9.71;65.32;90573.59;2069575;69;20051;-74
2022/03/31 07:52:40;;;;;;;;;;;;;;;9.71;63.52;90575.69;2056579;70;20054;-74
2022/03/31 07:55:08;;;;;;;;;;;;;;;10.15;62.00;90570.66;2069594;69;20050;-74
2022/03/31 07:57:33;;;;;;;;;;;;;;;10.12;63.11;90567.06;2056689;70;20055;-73
2022/03/31 07:59:59;;;;;;;;;;;;;;;9.71;64.65;90570.78;2069496;69;20042;-73
2022/03/31 08:02:25;;;;;;;;;;;;;;;9.64;66.54;90569.19;2056524;69;20050;-73
2022/03/31 08:04:51;;;;;;;;;;;;;;;9.51;66.13;90568.09;2056485;70;20058;-74
2022/03/31 08:07:16;;;;;;;;;;;;;;;10.09;64.35;90564.88;2056551;70;20501;-73
2022/03/31 08:09:42;;;;;;;;;;;;;;;10.27;63.87;90570.31;2069527;69;20050;-73
2022/03/31 08:12:08;;;;;;;;;;;;;;;9.97;64.92;90561.72;2056640;70;20518;-73
2022/03/31 08:14:33;;;;;;;;;;;;;;;9.86;65.82;90555.81;2056403;70;20133;-73
2022/03/31 08:16:58;;;;;;;;;;;;;;;9.95;65.19;90558.84;2056507;70;20072;-73
2022/03/31 08:19:24;;;;;;;;;;;;;;;10.31;63.85;90562.72;2056500;70;20053;-74
2022/03/31 08:21:50;;;;;;;;;;;;;;;10.42;63.68;90558.06;2066710;69;20145;-74
2022/03/31 08:24:16;;;;;;;;;;;;;;;10.41;62.32;90548.94;2056470;70;20054;-74
2022/03/31 08:26:42;;;;;;;;;;;;;;;10.54;62.33;90555.59;2056456;70;20061;-73
2022/03/31 08:29:08;;;;;;;;;;;;;;;10.82;60.65;90552.81;2056346;69;20054;-75
2022/03/31 08:31:34;;;;;;;;;;;;;;;10.55;62.04;90550.69;2056445;69;20425;-73
2022/03/31 08:34:03;;;;;;;;;;;;;;;10.71;61.72;90547.56;2056479;70;20050;-73
2022/03/31 08:36:29;;;;;;;;;;;;;;;10.87;60.29;90556.44;2069480;69;20544;-73
2022/03/31 08:38:54;;;;;;;;;;;;;;;10.99;60.08;90551.09;2069050;69;20058;-73
2022/03/31 08:41:22;;;;;;;;;;;;;;;11.32;59.10;90544.16;2068853;69;20094;-73
2022/03/31 08:43:48;;;;;;;;;;;;;;;11.59;59.81;90547.56;2055831;70;20557;-73
2022/03/31 08:46:14;;;;;;;;;;;;;;;11.23;59.16;90539.00;2055859;70;20086;-73
2022/03/31 08:48:39;;;;;;;;;;;;;;;10.98;61.05;90544.03;2055895;70;20058;-73
2022/03/31 08:51:05;;;;;;;;;;;;;;;10.99;59.47;90539.81;2055866;70;20147;-73
2022/03/31 08:53:31;;;;;;;;;;;;;;;10.93;57.94;90539.69;2068906;69;20142;-73
2022/03/31 08:55:57;;;;;;;;;;;;;;;11.06;58.57;90532.97;2066079;69;20057;-73
2022/03/31 08:58:22;;;;;;;;;;;;;;;10.59;59.67;90534.63;2068814;69;20058;-74
2022/03/31 09:00:48;;;;;;;;;;;;;;;10.83;58.89;90536.63;2055745;70;20070;-74
2022/03/31 09:03:13;;;;;;;;;;;;;;;10.98;59.07;90532.06;2055918;70;20050;-73
2022/03/31 09:05:45;;;;;;;;;;;;;;;11.23;59.27;90533.38;2069004;69;20141;-73
2022/03/31 09:08:12;;;;;;;;;;;;;;;11.47;58.74;90533.22;2055836;69;20059;-73
2022/03/31 09:10:42;;;;;;;;;;;;;;;10.78;59.81;90535.09;2055786;70;20478;-73
2022/03/31 09:13:23;;;;;;;;;;;;;;;11.22;58.45;90524.19;2055865;70;20048;-73
2022/03/31 09:15:51;;;;;;;;;;;;;;;11.60;57.44;90524.38;2055761;70;20105;-74
2022/03/31 09:18:19;;;;;;;;;;;;;;;11.06;57.97;90524.53;2055997;70;20503;-74
2022/03/31 09:20:44;;;;;;;;;;;;;;;10.92;59.90;90529.81;2068778;69;20062;-74
2022/03/31 09:23:23;;;;;;;;;;;;;;;10.93;59.27;90519.97;2055728;69;20156;-74
2022/03/31 09:25:51;;;;;;;;;;;;;;;11.30;58.13;90521.56;2055832;69;20090;-74
2022/03/31 09:28:23;;;;;;;;;;;;;;;11.32;56.93;90520.91;2055782;70;20053;-74
2022/03/31 09:30:50;;;;;;;;;;;;;;;11.65;55.49;90522.34;2055758;70;20073;-73
2022/03/31 09:33:25;;;;;;;;;;;;;;;11.44;56.93;90516.25;2055794;70;20046;-74
2022/03/31 09:36:03;;;;;;;;;;;;;;;11.48;55.08;90515.63;2055771;69;20054;-75
2022/03/31 09:38:29;;;;;;;;;;;;;;;11.63;55.94;90511.03;2055929;70;20494;-74
2022/03/31 09:40:55;;;;;;;;;;;;;;;11.63;55.40;90511.03;2055708;70;20057;-74
2022/03/31 09:43:20;;;;;;;;;;;;;;;11.85;54.76;90510.81;2055746;70;20042;-74
2022/03/31 09:45:46;;;;;;;;;;;;;;;11.86;55.27;90512.97;2055642;70;20145;-73
2022/03/31 09:48:20;;;;;;;;;;;;;;;11.70;55.61;90507.69;2055634;69;20114;-74
2022/03/31 09:50:45;;;;;;;;;;;;;;;11.92;54.56;90513.09;2055760;70;20137;-74
2022/03/31 09:53:11;;;;;;;;;;;;;;;11.95;56.32;90503.28;2055527;70;20185;-74
2022/03/31 09:55:38;;;;;;;;;;;;;;;11.87;54.31;90505.25;2055558;69;20112;-73
2022/03/31 09:58:04;;;;;;;;;;;;;;;11.83;54.51;90500.22;2065817;69;20151;-73
2022/03/31 10:00:30;;;;;;;;;;;;;;;11.78;55.35;90501.50;2055572;69;20441;-73
2022/03/31 10:02:55;;;;;;;;;;;;;;;11.82;55.56;90495.97;2055845;70;20502;-74
2022/03/31 10:05:21;;;;;;;;;;;;;;;11.86;54.62;90489.69;2068708;69;20050;-74
2022/03/31 10:07:48;;;;;;;;;;;;;;;11.56;57.12;90486.94;2055646;69;20123;-72
2022/03/31 10:10:15;;;;;;;;;;;;;;;11.21;58.94;90491.78;2055691;69;20057;-75
2022/03/31 10:12:43;;;;;;;;;;;;;;;10.82;61.31;90481.72;2055721;70;20429;-75
2022/03/31 10:15:13;;;;;;;;;;;;;;;11.28;59.45;90475.75;2055651;69;20166;-75
2022/03/31 10:17:41;;;;;;;;;;;;;;;11.47;57.20;90476.88;2055766;70;20506;-77
2022/03/31 10:20:10;;;;;;;;;;;;;;;11.45;58.18;90467.00;2055710;69;20150;-76
2022/03/31 10:25:20;;;;;;;;;;;;;;;11.38;58.34;90478.78;2055767;70;20059;-74
2022/03/31 10:27:46;;;;;;;;;;;;;;;11.26;61.10;90464.44;2055662;69;20416;-75
2022/03/31 10:30:15;;;;;;;;;;;;;;;11.57;58.45;90463.72;2055633;70;20058;-74
2022/03/31 10:32:49;;;;;;;;;;;;;;;11.61;58.06;90466.63;2055689;70;20046;-72
2022/03/31 10:35:41;;;;;;;;;;;;;;;10.93;63.12;90453.13;2055505;70;20085;-73
2022/03/31 10:38:25;;;;;;;;;;;;;;;11.00;62.47;90462.47;2067329;69;20119;-74
2022/03/31 10:40:51;;;;;;;;;;;;;;;10.80;64.89;90459.16;2055774;70;20053;-75
2022/03/31 10:43:20;;;;;;;;;;;;;;;10.72;63.81;90450.50;2068650;69;20123;-75
2022/03/31 10:45:45;;;;;;;;;;;;;;;10.59;63.51;90457.97;2068590;69;20149;-73
2022/03/31 10:48:18;;;;;;;;;;;;;;;10.90;62.87;90448.13;2055736;70;20521;-75
2022/03/31 10:50:44;;;;;;;;;;;;;;;11.24;62.35;90444.69;2055654;70;20119;-74
2022/03/31 10:53:09;;;;;;;;;;;;;;;11.48;58.24;90444.50;2068598;69;20054;-73
2022/03/31 10:55:37;;;;;;;;;;;;;;;11.54;58.97;90436.16;2068578;69;20052;-75
2022/03/31 10:58:03;;;;;;;;;;;;;;;11.57;61.12;90437.66;2055587;70;20061;-75
2022/03/31 11:00:28;;;;;;;;;;;;;;;11.57;60.89;90435.53;2068494;69;20270;-75
2022/03/31 11:02:55;;;;;;;;;;;;;;;11.53;58.24;90431.91;2065675;69;20644;-76
2022/03/31 11:05:21;;;;;;;;;;;;;;;11.50;58.69;90430.44;2056500;70;20093;-75
2022/03/31 11:07:48;;;;;;;;;;;;;;;11.59;59.35;90432.03;2055981;70;20058;-74
2022/03/31 11:10:15;;;;;;;;;;;;;;;11.66;61.07;90423.03;2055611;70;20503;-76
2022/03/31 11:12:41;;;;;;;;;;;;;;;11.85;58.38;90418.50;2055503;70;20101;-76
2022/03/31 11:15:11;;;;;;;;;;;;;;;10.93;63.19;90416.56;2068523;69;20410;-79
2022/03/31 11:17:38;;;;;;;;;;;;;;;11.02;62.02;90411.09;2055603;70;20069;-76
2022/03/31 11:20:14;;;;;;;;;;;;;;;10.80;64.09;90409.22;2055553;70;20046;-74
2022/03/31 11:22:46;;;;;;;;;;;;;;;11.05;63.14;90404.84;2055540;69;20521;-74
2022/03/31 11:25:12;;;;;;;;;;;;;;;11.02;63.35;90402.66;2055463;70;20042;-74
2022/03/31 11:27:39;;;;;;;;;;;;;;;11.22;62.10;90405.19;2055502;69;20046;-76
2022/03/31 11:30:12;;;;;;;;;;;;;;;10.81;64.10;90398.66;2055325;70;20624;-75
2022/03/31 11:32:39;;;;;;;;;;;;;;;10.54;65.87;90397.34;2068461;69;20474;-74
2022/03/31 11:35:09;;;;;;;;;;;;;;;10.61;65.16;90398.91;2068348;69;20491;-74
2022/03/31 11:37:35;;;;;;;;;;;;;;;10.57;64.82;90396.00;2055363;70;20053;-75
2022/03/31 11:40:00;;;;;;;;;;;;;;;10.70;64.16;90383.66;2068402;69;20054;-76
2022/03/31 11:42:26;;;;;;;;;;;;;;;10.37;65.70;90390.63;2055472;70;20418;-74
2022/03/31 11:44:51;;;;;;;;;;;;;;;10.53;65.26;90379.03;2055294;69;20173;-74
2022/03/31 11:47:18;;;;;;;;;;;;;;;11.35;62.01;90368.19;2055459;70;20078;-74
2022/03/31 11:49:45;;;;;;;;;;;;;;;10.86;64.99;90377.69;2055533;70;20081;-75
2022/03/31 11:52:11;;;;;;;;;;;;;;;11.23;64.09;90379.22;2055507;69;20101;-78
2022/03/31 11:54:40;;;;;;;;;;;;;;;10.49;66.06;90384.56;2055489;70;20151;-76
2022/03/31 11:57:07;;;;;;;;;;;;;;;10.62;66.11;90378.53;2055444;70;20049;-75
2022/03/31 11:59:34;;;;;;;;;;;;;;;10.72;65.24;90366.84;2055277;69;20050;-75
2022/03/31 12:02:00;;;;;;;;;;;;;;;11.11;63.89;90367.69;2055440;70;20049;-74
2022/03/31 12:04:27;;;;;;;;;;;;;;;11.45;60.80;90357.13;2055436;70;20142;-75
2022/03/31 12:06:54;;;;;;;;;;;;;;;11.57;60.26;90356.66;2055384;70;20050;-75
2022/03/31 12:09:19;;;;;;;;;;;;;;;10.91;64.00;90351.78;2068464;69;20078;-75
2022/03/31 12:11:48;;;;;;;;;;;;;;;10.94;64.57;90346.91;2055345;70;20062;-76
2022/03/31 12:14:14;;;;;;;;;;;;;;;11.57;61.89;90348.19;2055330;69;20089;-77
2022/03/31 12:16:51;;;;;;;;;;;;;;;11.45;61.67;90347.94;2068953;69;20082;-75
2022/03/31 12:19:17;;;;;;;;;;;;;;;11.76;60.96;90354.19;2055989;70;20640;-74
2022/03/31 12:21:50;;;;;;;;;;;;;;;11.92;60.45;90346.06;2055839;70;20145;-75
2022/03/31 12:24:16;;;;;;;;;;;;;;;12.05;59.38;90342.06;2055840;70;20058;-76
2022/03/31 12:26:56;;;;;;;;;;;;;;;12.17;58.06;90345.09;2055868;70;20072;-77
2022/03/31 12:29:23;;;;;;;;;;;;;;;11.73;59.03;90344.25;2055820;70;20120;-74
2022/03/31 12:32:09;;;;;;;;;;;;;;;11.79;59.07;90345.09;2068880;69;20074;-76
2022/03/31 12:34:35;;;;;;;;;;;;;;;11.58;60.74;90343.97;2054509;69;20078;-73
2022/03/31 12:37:02;;;;;;;;;;;;;;;11.73;59.98;90342.16;2054759;69;20436;-75
2022/03/31 12:39:27;;;;;;;;;;;;;;;11.69;58.92;90331.53;2055368;70;20073;-73
2022/03/31 12:41:54;;;;;;;;;;;;;;;11.75;60.09;90338.66;2055373;70;20050;-73
2022/03/31 12:44:21;;;;;;;;;;;;;;;11.55;59.57;90336.19;2055259;69;20088;-74
2022/03/31 12:46:53;;;;;;;;;;;;;;;11.45;58.86;90345.13;2055528;70;20062;-73
2022/03/31 12:49:20;;;;;;;;;;;;;;;11.35;58.41;90334.38;2068465;69;20054;-73
2022/03/31 12:51:47;;;;;;;;;;;;;;;11.59;59.08;90328.53;2055573;69;20113;-75
2022/03/31 12:54:18;;;;;;;;;;;;;;;11.69;58.29;90330.81;2055516;70;20093;-74
2022/03/31 12:56:48;;;;;;;;;;;;;;;11.47;58.98;90338.84;2055726;70;20429;-75